sensor_id;sensor_type;location;lat;lon;timestamp;temperature;humidity
25825;DHT22;13658;44.534;18.694;2022-07-22T00:01:26;18.90;99.90
25825;DHT22;13658;44.534;18.694;2022-07-22T00:03:52;18.80;99.90
25825;DHT22;13658;44.534;18.694;2022-07-22T00:06:18;18.80;99.90
25825;DHT22;13658;44.534;18.694;2022-07-22T00:08:44;18.70;99.90
25825;DHT22;13658;44.534;18.694;2022-07-22T00:11:10;18.60;99.90
25825;DHT22;13658;44.534;18.694;2022-07-22T00:13:36;18.60;99.90
25825;DHT22;13658;44.534;18.694;2022-07-22T00:16:02;18.60;99.90
25825;DHT22;13658;44.534;18.694;2022-07-22T00:18:28;18.60;99.90
25825;DHT22;13658;44.534;18.694;2022-07-22T00:20:55;18.60;99.90
25825;DHT22;13658;44.534;18.694;2022-07-22T00:23:21;18.50;99.90
25825;DHT22;13658;44.534;18.694;2022-07-22T00:25:47;18.40;99.90
25825;DHT22;13658;44.534;18.694;2022-07-22T00:28:13;18.30;99.90
25825;DHT22;13658;44.534;18.694;2022-07-22T00:30:39;18.30;99.90
25825;DHT22;13658;44.534;18.694;2022-07-22T00:33:05;18.30;99.90
25825;DHT22;13658;44.534;18.694;2022-07-22T00:35:31;18.40;99.90
25825;DHT22;13658;44.534;18.694;2022-07-22T00:37:57;18.60;99.90
25825;DHT22;13658;44.534;18.694;2022-07-22T00:40:23;18.70;99.90
25825;DHT22;13658;44.534;18.694;2022-07-22T00:42:49;18.60;99.90
25825;DHT22;13658;44.534;18.694;2022-07-22T00:45:16;18.50;99.90
25825;DHT22;13658;44.534;18.694;2022-07-22T00:47:42;18.30;99.90
25825;DHT22;13658;44.534;18.694;2022-07-22T00:50:08;18.20;99.90
25825;DHT22;13658;44.534;18.694;2022-07-22T00:52:35;18.10;99.90
25825;DHT22;13658;44.534;18.694;2022-07-22T00:55:02;18.10;99.90
25825;DHT22;13658;44.534;18.694;2022-07-22T00:57:28;18.10;99.90
25825;DHT22;13658;44.534;18.694;2022-07-22T00:59:54;18.20;99.90
25825;DHT22;13658;44.534;18.694;2022-07-22T01:02:20;18.30;99.90
25825;DHT22;13658;44.534;18.694;2022-07-22T01:04:46;18.10;99.90
25825;DHT22;13658;44.534;18.694;2022-07-22T01:07:13;18.00;99.90
25825;DHT22;13658;44.534;18.694;2022-07-22T01:09:43;18.00;99.90
25825;DHT22;13658;44.534;18.694;2022-07-22T01:12:09;17.90;99.90
25825;DHT22;13658;44.534;18.694;2022-07-22T01:14:35;17.90;99.90
25825;DHT22;13658;44.534;18.694;2022-07-22T01:17:01;17.80;99.90
25825;DHT22;13658;44.534;18.694;2022-07-22T01:19:27;17.80;99.90
25825;DHT22;13658;44.534;18.694;2022-07-22T01:21:53;17.90;99.90
25825;DHT22;13658;44.534;18.694;2022-07-22T01:24:19;17.90;99.90
25825;DHT22;13658;44.534;18.694;2022-07-22T01:26:45;18.00;99.90
25825;DHT22;13658;44.534;18.694;2022-07-22T01:29:11;17.90;99.90
25825;DHT22;13658;44.534;18.694;2022-07-22T01:31:37;17.90;99.90
25825;DHT22;13658;44.534;18.694;2022-07-22T01:34:03;18.10;99.90
25825;DHT22;13658;44.534;18.694;2022-07-22T01:36:34;18.10;99.90
25825;DHT22;13658;44.534;18.694;2022-07-22T01:39:00;18.10;99.90
25825;DHT22;13658;44.534;18.694;2022-07-22T01:41:26;18.00;99.90
25825;DHT22;13658;44.534;18.694;2022-07-22T01:43:52;17.90;99.90
25825;DHT22;13658;44.534;18.694;2022-07-22T01:46:18;17.80;99.90
25825;DHT22;13658;44.534;18.694;2022-07-22T01:48:45;17.70;99.90
25825;DHT22;13658;44.534;18.694;2022-07-22T01:51:11;17.70;99.90
25825;DHT22;13658;44.534;18.694;2022-07-22T01:53:38;17.60;99.90
25825;DHT22;13658;44.534;18.694;2022-07-22T01:56:04;17.60;99.90
25825;DHT22;13658;44.534;18.694;2022-07-22T01:58:35;17.60;99.90
25825;DHT22;13658;44.534;18.694;2022-07-22T02:01:05;17.70;99.90
25825;DHT22;13658;44.534;18.694;2022-07-22T02:03:31;17.60;99.90
25825;DHT22;13658;44.534;18.694;2022-07-22T02:05:57;17.70;99.90
25825;DHT22;13658;44.534;18.694;2022-07-22T02:08:27;17.70;99.90
25825;DHT22;13658;44.534;18.694;2022-07-22T02:11:13;17.70;99.90
25825;DHT22;13658;44.534;18.694;2022-07-22T02:13:54;17.70;99.90
25825;DHT22;13658;44.534;18.694;2022-07-22T02:16:21;17.70;99.90
25825;DHT22;13658;44.534;18.694;2022-07-22T02:18:49;17.60;99.90
25825;DHT22;13658;44.534;18.694;2022-07-22T02:21:16;17.60;99.90
25825;DHT22;13658;44.534;18.694;2022-07-22T02:23:42;17.60;99.90
25825;DHT22;13658;44.534;18.694;2022-07-22T02:26:09;17.60;99.90
25825;DHT22;13658;44.534;18.694;2022-07-22T02:28:36;17.60;99.90
25825;DHT22;13658;44.534;18.694;2022-07-22T02:31:03;17.40;99.90
25825;DHT22;13658;44.534;18.694;2022-07-22T02:33:29;17.30;99.90
25825;DHT22;13658;44.534;18.694;2022-07-22T02:35:56;17.30;99.90
25825;DHT22;13658;44.534;18.694;2022-07-22T02:38:23;17.40;99.90
25825;DHT22;13658;44.534;18.694;2022-07-22T02:40:49;17.40;99.90
25825;DHT22;13658;44.534;18.694;2022-07-22T02:43:15;17.40;99.90
25825;DHT22;13658;44.534;18.694;2022-07-22T02:45:42;17.50;99.90
25825;DHT22;13658;44.534;18.694;2022-07-22T02:48:08;17.40;99.90
25825;DHT22;13658;44.534;18.694;2022-07-22T02:50:34;17.40;99.90
25825;DHT22;13658;44.534;18.694;2022-07-22T02:53:02;17.40;99.90
25825;DHT22;13658;44.534;18.694;2022-07-22T02:55:33;17.30;99.90
25825;DHT22;13658;44.534;18.694;2022-07-22T02:58:09;17.10;99.90
25825;DHT22;13658;44.534;18.694;2022-07-22T03:00:40;16.90;99.90
25825;DHT22;13658;44.534;18.694;2022-07-22T03:03:06;16.80;99.90
25825;DHT22;13658;44.534;18.694;2022-07-22T03:05:33;16.70;99.90
25825;DHT22;13658;44.534;18.694;2022-07-22T03:08:16;16.70;99.90
25825;DHT22;13658;44.534;18.694;2022-07-22T03:10:43;16.70;99.90
25825;DHT22;13658;44.534;18.694;2022-07-22T03:13:10;16.80;99.90
25825;DHT22;13658;44.534;18.694;2022-07-22T03:15:36;16.60;99.90
25825;DHT22;13658;44.534;18.694;2022-07-22T03:18:02;16.60;99.90
25825;DHT22;13658;44.534;18.694;2022-07-22T03:20:29;16.60;99.90
25825;DHT22;13658;44.534;18.694;2022-07-22T03:22:55;16.50;99.90
25825;DHT22;13658;44.534;18.694;2022-07-22T03:25:22;16.60;99.90
25825;DHT22;13658;44.534;18.694;2022-07-22T03:27:48;16.60;99.90
25825;DHT22;13658;44.534;18.694;2022-07-22T03:30:14;16.70;99.90
25825;DHT22;13658;44.534;18.694;2022-07-22T03:32:40;16.70;99.90
25825;DHT22;13658;44.534;18.694;2022-07-22T03:35:13;16.70;99.90
25825;DHT22;13658;44.534;18.694;2022-07-22T03:37:42;16.70;99.90
25825;DHT22;13658;44.534;18.694;2022-07-22T03:40:09;16.80;99.90
25825;DHT22;13658;44.534;18.694;2022-07-22T03:42:37;16.70;99.90
25825;DHT22;13658;44.534;18.694;2022-07-22T03:45:03;16.70;99.90
25825;DHT22;13658;44.534;18.694;2022-07-22T03:47:31;16.70;99.90
25825;DHT22;13658;44.534;18.694;2022-07-22T03:49:57;16.70;99.90
25825;DHT22;13658;44.534;18.694;2022-07-22T03:52:28;16.70;99.90
25825;DHT22;13658;44.534;18.694;2022-07-22T03:54:55;16.70;99.90
25825;DHT22;13658;44.534;18.694;2022-07-22T03:57:22;16.70;99.90
25825;DHT22;13658;44.534;18.694;2022-07-22T03:59:57;16.70;99.90
25825;DHT22;13658;44.534;18.694;2022-07-22T04:02:22;16.90;99.90
25825;DHT22;13658;44.534;18.694;2022-07-22T04:04:49;16.80;99.90
25825;DHT22;13658;44.534;18.694;2022-07-22T04:07:16;16.80;99.90
25825;DHT22;13658;44.534;18.694;2022-07-22T04:09:42;16.90;99.90
25825;DHT22;13658;44.534;18.694;2022-07-22T04:12:08;16.90;99.90
25825;DHT22;13658;44.534;18.694;2022-07-22T04:14:48;16.80;99.90
25825;DHT22;13658;44.534;18.694;2022-07-22T04:17:14;16.80;99.90
25825;DHT22;13658;44.534;18.694;2022-07-22T04:19:40;16.80;99.90
25825;DHT22;13658;44.534;18.694;2022-07-22T04:22:17;16.90;99.90
25825;DHT22;13658;44.534;18.694;2022-07-22T04:24:43;16.80;99.90
25825;DHT22;13658;44.534;18.694;2022-07-22T04:27:11;16.80;99.90
25825;DHT22;13658;44.534;18.694;2022-07-22T04:29:38;16.80;99.90
25825;DHT22;13658;44.534;18.694;2022-07-22T04:32:04;16.90;99.90
25825;DHT22;13658;44.534;18.694;2022-07-22T04:34:30;17.10;99.90
25825;DHT22;13658;44.534;18.694;2022-07-22T04:36:57;17.50;99.90
25825;DHT22;13658;44.534;18.694;2022-07-22T04:39:26;17.80;99.90
25825;DHT22;13658;44.534;18.694;2022-07-22T04:41:56;18.10;99.90
25825;DHT22;13658;44.534;18.694;2022-07-22T04:44:22;18.40;99.90
25825;DHT22;13658;44.534;18.694;2022-07-22T04:46:48;18.70;99.90
25825;DHT22;13658;44.534;18.694;2022-07-22T04:49:14;18.80;99.90
25825;DHT22;13658;44.534;18.694;2022-07-22T04:51:40;19.00;99.90
25825;DHT22;13658;44.534;18.694;2022-07-22T04:54:10;19.10;99.90
25825;DHT22;13658;44.534;18.694;2022-07-22T04:56:40;19.30;99.90
25825;DHT22;13658;44.534;18.694;2022-07-22T04:59:06;19.30;99.90
25825;DHT22;13658;44.534;18.694;2022-07-22T05:01:34;19.40;99.90
25825;DHT22;13658;44.534;18.694;2022-07-22T05:04:01;19.20;99.90
25825;DHT22;13658;44.534;18.694;2022-07-22T05:06:28;19.60;99.90
25825;DHT22;13658;44.534;18.694;2022-07-22T05:08:54;20.00;99.90
25825;DHT22;13658;44.534;18.694;2022-07-22T05:11:20;20.40;99.90
25825;DHT22;13658;44.534;18.694;2022-07-22T05:13:47;20.80;99.90
25825;DHT22;13658;44.534;18.694;2022-07-22T05:16:14;20.90;99.90
25825;DHT22;13658;44.534;18.694;2022-07-22T05:18:40;21.20;99.90
25825;DHT22;13658;44.534;18.694;2022-07-22T05:21:09;21.40;99.90
25825;DHT22;13658;44.534;18.694;2022-07-22T05:23:35;21.60;99.90
25825;DHT22;13658;44.534;18.694;2022-07-22T05:26:03;21.90;99.90
25825;DHT22;13658;44.534;18.694;2022-07-22T05:28:29;22.10;99.90
25825;DHT22;13658;44.534;18.694;2022-07-22T05:30:56;22.30;99.90
25825;DHT22;13658;44.534;18.694;2022-07-22T05:33:25;22.60;99.90
25825;DHT22;13658;44.534;18.694;2022-07-22T05:36:22;22.90;99.90
25825;DHT22;13658;44.534;18.694;2022-07-22T05:38:49;23.20;99.90
25825;DHT22;13658;44.534;18.694;2022-07-22T05:41:15;23.40;99.90
25825;DHT22;13658;44.534;18.694;2022-07-22T05:43:42;23.70;99.90
25825;DHT22;13658;44.534;18.694;2022-07-22T05:46:08;24.00;99.90
25825;DHT22;13658;44.534;18.694;2022-07-22T05:48:34;24.30;99.90
25825;DHT22;13658;44.534;18.694;2022-07-22T05:51:01;24.30;99.90
25825;DHT22;13658;44.534;18.694;2022-07-22T05:53:30;24.50;99.90
25825;DHT22;13658;44.534;18.694;2022-07-22T05:55:56;24.70;99.90
25825;DHT22;13658;44.534;18.694;2022-07-22T05:58:22;24.90;99.90
25825;DHT22;13658;44.534;18.694;2022-07-22T06:00:48;25.10;99.90
25825;DHT22;13658;44.534;18.694;2022-07-22T06:03:14;25.20;99.90
25825;DHT22;13658;44.534;18.694;2022-07-22T06:05:40;25.30;99.90
25825;DHT22;13658;44.534;18.694;2022-07-22T06:08:09;25.70;99.90
25825;DHT22;13658;44.534;18.694;2022-07-22T06:10:47;25.80;99.90
25825;DHT22;13658;44.534;18.694;2022-07-22T06:13:14;26.10;99.90
25825;DHT22;13658;44.534;18.694;2022-07-22T06:15:41;26.30;99.90
25825;DHT22;13658;44.534;18.694;2022-07-22T06:18:07;26.40;99.90
25825;DHT22;13658;44.534;18.694;2022-07-22T06:20:33;26.50;99.90
25825;DHT22;13658;44.534;18.694;2022-07-22T06:22:59;26.80;99.90
25825;DHT22;13658;44.534;18.694;2022-07-22T06:25:25;27.10;99.90
25825;DHT22;13658;44.534;18.694;2022-07-22T06:27:52;27.40;99.90
25825;DHT22;13658;44.534;18.694;2022-07-22T06:30:18;27.50;99.90
25825;DHT22;13658;44.534;18.694;2022-07-22T06:32:45;27.50;99.90
25825;DHT22;13658;44.534;18.694;2022-07-22T06:35:11;27.70;99.90
25825;DHT22;13658;44.534;18.694;2022-07-22T06:37:37;27.60;99.90
25825;DHT22;13658;44.534;18.694;2022-07-22T06:40:04;28.00;99.90
25825;DHT22;13658;44.534;18.694;2022-07-22T06:42:52;28.50;99.90
25825;DHT22;13658;44.534;18.694;2022-07-22T06:45:28;28.70;99.90
25825;DHT22;13658;44.534;18.694;2022-07-22T06:48:23;28.90;99.90
25825;DHT22;13658;44.534;18.694;2022-07-22T06:50:49;29.40;99.90
25825;DHT22;13658;44.534;18.694;2022-07-22T06:53:16;29.80;99.90
25825;DHT22;13658;44.534;18.694;2022-07-22T06:55:43;30.00;99.90
25825;DHT22;13658;44.534;18.694;2022-07-22T06:58:11;30.10;99.90
25825;DHT22;13658;44.534;18.694;2022-07-22T07:00:38;30.30;99.90
25825;DHT22;13658;44.534;18.694;2022-07-22T07:03:22;30.30;99.90
25825;DHT22;13658;44.534;18.694;2022-07-22T07:05:55;30.40;99.90
25825;DHT22;13658;44.534;18.694;2022-07-22T07:08:21;30.40;99.90
25825;DHT22;13658;44.534;18.694;2022-07-22T07:10:47;30.60;99.90
25825;DHT22;13658;44.534;18.694;2022-07-22T07:13:14;30.90;99.90
25825;DHT22;13658;44.534;18.694;2022-07-22T07:15:42;31.10;99.90
25825;DHT22;13658;44.534;18.694;2022-07-22T07:18:09;31.30;99.90
25825;DHT22;13658;44.534;18.694;2022-07-22T07:20:38;31.50;99.90
25825;DHT22;13658;44.534;18.694;2022-07-22T07:23:06;31.60;99.90
25825;DHT22;13658;44.534;18.694;2022-07-22T07:25:36;31.90;99.90
25825;DHT22;13658;44.534;18.694;2022-07-22T07:28:02;32.10;99.90
25825;DHT22;13658;44.534;18.694;2022-07-22T07:31:03;32.20;99.90
25825;DHT22;13658;44.534;18.694;2022-07-22T07:33:30;32.20;99.90
25825;DHT22;13658;44.534;18.694;2022-07-22T07:35:57;31.40;99.90
25825;DHT22;13658;44.534;18.694;2022-07-22T07:38:39;31.70;99.90
25825;DHT22;13658;44.534;18.694;2022-07-22T07:41:09;32.00;99.90
25825;DHT22;13658;44.534;18.694;2022-07-22T07:43:37;32.40;99.90
25825;DHT22;13658;44.534;18.694;2022-07-22T07:46:04;32.30;99.90
25825;DHT22;13658;44.534;18.694;2022-07-22T07:48:30;32.50;99.90
25825;DHT22;13658;44.534;18.694;2022-07-22T07:50:56;32.50;99.90
25825;DHT22;13658;44.534;18.694;2022-07-22T07:53:22;32.50;99.90
25825;DHT22;13658;44.534;18.694;2022-07-22T07:55:49;33.20;99.90
25825;DHT22;13658;44.534;18.694;2022-07-22T07:58:16;33.50;99.90
25825;DHT22;13658;44.534;18.694;2022-07-22T08:00:43;33.80;99.90
25825;DHT22;13658;44.534;18.694;2022-07-22T08:03:10;33.70;99.90
25825;DHT22;13658;44.534;18.694;2022-07-22T08:05:38;33.70;99.90
25825;DHT22;13658;44.534;18.694;2022-07-22T08:08:13;33.10;99.90
25825;DHT22;13658;44.534;18.694;2022-07-22T08:10:39;33.30;99.90
25825;DHT22;13658;44.534;18.694;2022-07-22T08:13:24;33.60;99.90
25825;DHT22;13658;44.534;18.694;2022-07-22T08:16:04;33.90;99.90
25825;DHT22;13658;44.534;18.694;2022-07-22T08:18:32;34.50;99.90
25825;DHT22;13658;44.534;18.694;2022-07-22T08:20:59;34.20;99.90
25825;DHT22;13658;44.534;18.694;2022-07-22T08:23:45;34.20;99.90
25825;DHT22;13658;44.534;18.694;2022-07-22T08:26:12;33.80;99.90
25825;DHT22;13658;44.534;18.694;2022-07-22T08:28:38;33.70;99.90
25825;DHT22;13658;44.534;18.694;2022-07-22T08:31:04;34.10;99.90
25825;DHT22;13658;44.534;18.694;2022-07-22T08:33:30;34.80;99.90
25825;DHT22;13658;44.534;18.694;2022-07-22T08:35:56;35.10;99.90
25825;DHT22;13658;44.534;18.694;2022-07-22T08:38:22;35.30;99.90
25825;DHT22;13658;44.534;18.694;2022-07-22T08:40:49;35.40;99.90
25825;DHT22;13658;44.534;18.694;2022-07-22T08:43:15;35.30;99.90
25825;DHT22;13658;44.534;18.694;2022-07-22T08:45:41;35.80;99.90
25825;DHT22;13658;44.534;18.694;2022-07-22T08:48:07;35.40;99.90
25825;DHT22;13658;44.534;18.694;2022-07-22T08:50:39;35.90;99.90
25825;DHT22;13658;44.534;18.694;2022-07-22T08:53:18;36.30;99.90
25825;DHT22;13658;44.534;18.694;2022-07-22T08:55:47;36.70;99.90
25825;DHT22;13658;44.534;18.694;2022-07-22T08:58:14;36.60;99.90
25825;DHT22;13658;44.534;18.694;2022-07-22T09:00:41;36.70;99.90
25825;DHT22;13658;44.534;18.694;2022-07-22T09:03:20;36.50;99.90
25825;DHT22;13658;44.534;18.694;2022-07-22T09:05:50;35.70;99.90
25825;DHT22;13658;44.534;18.694;2022-07-22T09:08:21;36.50;99.90
25825;DHT22;13658;44.534;18.694;2022-07-22T09:10:56;36.20;99.90
25825;DHT22;13658;44.534;18.694;2022-07-22T09:13:43;36.50;99.90
25825;DHT22;13658;44.534;18.694;2022-07-22T09:16:47;36.90;99.90
25825;DHT22;13658;44.534;18.694;2022-07-22T09:19:32;37.30;99.90
25825;DHT22;13658;44.534;18.694;2022-07-22T09:22:36;36.90;99.90
25825;DHT22;13658;44.534;18.694;2022-07-22T09:25:29;37.40;99.90
25825;DHT22;13658;44.534;18.694;2022-07-22T09:28:20;37.50;99.90
25825;DHT22;13658;44.534;18.694;2022-07-22T09:31:30;37.80;99.90
25825;DHT22;13658;44.534;18.694;2022-07-22T09:34:27;37.40;99.90
25825;DHT22;13658;44.534;18.694;2022-07-22T09:36:55;36.80;99.90
25825;DHT22;13658;44.534;18.694;2022-07-22T09:39:29;36.40;99.90
25825;DHT22;13658;44.534;18.694;2022-07-22T09:41:58;37.50;99.90
25825;DHT22;13658;44.534;18.694;2022-07-22T09:44:24;38.00;99.90
25825;DHT22;13658;44.534;18.694;2022-07-22T09:46:53;38.10;99.90
25825;DHT22;13658;44.534;18.694;2022-07-22T09:49:34;38.50;99.90
25825;DHT22;13658;44.534;18.694;2022-07-22T09:52:19;38.60;99.90
25825;DHT22;13658;44.534;18.694;2022-07-22T09:55:07;38.80;99.90
25825;DHT22;13658;44.534;18.694;2022-07-22T09:57:33;38.90;99.90
25825;DHT22;13658;44.534;18.694;2022-07-22T10:00:00;38.80;99.90
25825;DHT22;13658;44.534;18.694;2022-07-22T10:02:55;38.50;99.90
25825;DHT22;13658;44.534;18.694;2022-07-22T10:05:33;38.40;99.90
25825;DHT22;13658;44.534;18.694;2022-07-22T10:08:01;37.80;99.90
25825;DHT22;13658;44.534;18.694;2022-07-22T10:10:29;38.00;99.90
25825;DHT22;13658;44.534;18.694;2022-07-22T10:12:57;38.30;99.90
25825;DHT22;13658;44.534;18.694;2022-07-22T10:15:25;38.80;99.90
25825;DHT22;13658;44.534;18.694;2022-07-22T10:17:56;38.90;99.90
25825;DHT22;13658;44.534;18.694;2022-07-22T10:20:25;39.00;99.90
25825;DHT22;13658;44.534;18.694;2022-07-22T10:22:55;39.50;99.90
25825;DHT22;13658;44.534;18.694;2022-07-22T10:25:23;39.30;99.90
25825;DHT22;13658;44.534;18.694;2022-07-22T10:28:02;40.30;99.90
25825;DHT22;13658;44.534;18.694;2022-07-22T10:30:37;40.30;99.90
25825;DHT22;13658;44.534;18.694;2022-07-22T10:33:15;40.40;99.90
25825;DHT22;13658;44.534;18.694;2022-07-22T10:38:11;41.10;99.90
25825;DHT22;13658;44.534;18.694;2022-07-22T10:46:05;41.80;99.90
25825;DHT22;13658;44.534;18.694;2022-07-22T10:53:41;41.40;99.90
25825;DHT22;13658;44.534;18.694;2022-07-22T10:56:32;41.60;99.90
25825;DHT22;13658;44.534;18.694;2022-07-22T10:59:16;41.40;99.90
25825;DHT22;13658;44.534;18.694;2022-07-22T11:01:48;40.20;99.90
25825;DHT22;13658;44.534;18.694;2022-07-22T11:04:22;40.00;99.90
25825;DHT22;13658;44.534;18.694;2022-07-22T11:06:50;39.60;99.90
25825;DHT22;13658;44.534;18.694;2022-07-22T11:09:18;39.30;99.90
25825;DHT22;13658;44.534;18.694;2022-07-22T11:11:53;39.20;99.90
25825;DHT22;13658;44.534;18.694;2022-07-22T11:14:35;38.90;99.90
25825;DHT22;13658;44.534;18.694;2022-07-22T11:17:10;38.80;99.90
25825;DHT22;13658;44.534;18.694;2022-07-22T11:19:37;38.80;99.90
25825;DHT22;13658;44.534;18.694;2022-07-22T11:22:12;38.30;99.90
25825;DHT22;13658;44.534;18.694;2022-07-22T11:24:40;38.20;99.90
25825;DHT22;13658;44.534;18.694;2022-07-22T11:27:14;38.10;99.90
25825;DHT22;13658;44.534;18.694;2022-07-22T11:29:41;37.90;99.90
25825;DHT22;13658;44.534;18.694;2022-07-22T11:32:12;38.00;99.90
25825;DHT22;13658;44.534;18.694;2022-07-22T11:34:44;37.90;99.90
25825;DHT22;13658;44.534;18.694;2022-07-22T11:37:14;38.00;99.90
25825;DHT22;13658;44.534;18.694;2022-07-22T11:39:41;38.00;99.90
25825;DHT22;13658;44.534;18.694;2022-07-22T11:42:09;37.40;99.90
25825;DHT22;13658;44.534;18.694;2022-07-22T11:44:38;37.30;99.90
25825;DHT22;13658;44.534;18.694;2022-07-22T11:47:05;37.40;99.90
25825;DHT22;13658;44.534;18.694;2022-07-22T11:49:35;37.30;99.90
25825;DHT22;13658;44.534;18.694;2022-07-22T11:52:06;37.20;99.90
25825;DHT22;13658;44.534;18.694;2022-07-22T11:54:39;37.60;99.90
25825;DHT22;13658;44.534;18.694;2022-07-22T11:57:05;37.50;99.90
25825;DHT22;13658;44.534;18.694;2022-07-22T11:59:33;37.60;99.90
25825;DHT22;13658;44.534;18.694;2022-07-22T12:02:01;37.60;99.90
25825;DHT22;13658;44.534;18.694;2022-07-22T12:04:28;37.50;99.90
25825;DHT22;13658;44.534;18.694;2022-07-22T12:06:57;37.30;99.90
25825;DHT22;13658;44.534;18.694;2022-07-22T12:09:25;37.10;99.90
25825;DHT22;13658;44.534;18.694;2022-07-22T12:11:56;36.90;99.90
25825;DHT22;13658;44.534;18.694;2022-07-22T12:14:28;36.70;99.90
25825;DHT22;13658;44.534;18.694;2022-07-22T12:17:00;36.30;99.90
25825;DHT22;13658;44.534;18.694;2022-07-22T12:19:28;36.30;99.90
25825;DHT22;13658;44.534;18.694;2022-07-22T12:22:02;36.20;99.90
25825;DHT22;13658;44.534;18.694;2022-07-22T12:24:34;36.10;99.90
25825;DHT22;13658;44.534;18.694;2022-07-22T12:27:08;36.00;99.90
25825;DHT22;13658;44.534;18.694;2022-07-22T12:32:31;36.10;99.90
25825;DHT22;13658;44.534;18.694;2022-07-22T12:35:05;36.00;99.90
25825;DHT22;13658;44.534;18.694;2022-07-22T12:37:46;36.00;99.90
25825;DHT22;13658;44.534;18.694;2022-07-22T12:40:22;35.90;99.90
25825;DHT22;13658;44.534;18.694;2022-07-22T12:43:08;35.90;99.90
25825;DHT22;13658;44.534;18.694;2022-07-22T12:45:38;35.70;99.90
25825;DHT22;13658;44.534;18.694;2022-07-22T12:48:05;35.70;99.90
25825;DHT22;13658;44.534;18.694;2022-07-22T12:50:43;35.70;99.90
25825;DHT22;13658;44.534;18.694;2022-07-22T12:53:14;35.70;99.90
25825;DHT22;13658;44.534;18.694;2022-07-22T12:58:08;35.90;99.90
25825;DHT22;13658;44.534;18.694;2022-07-22T13:00:40;36.00;99.90
25825;DHT22;13658;44.534;18.694;2022-07-22T13:03:06;35.80;99.90
25825;DHT22;13658;44.534;18.694;2022-07-22T13:05:32;35.90;99.90
25825;DHT22;13658;44.534;18.694;2022-07-22T13:08:00;35.90;99.90
25825;DHT22;13658;44.534;18.694;2022-07-22T13:10:27;35.90;99.90
25825;DHT22;13658;44.534;18.694;2022-07-22T13:12:54;35.80;99.90
25825;DHT22;13658;44.534;18.694;2022-07-22T13:15:20;35.90;99.90
25825;DHT22;13658;44.534;18.694;2022-07-22T13:17:47;35.90;99.90
25825;DHT22;13658;44.534;18.694;2022-07-22T13:20:14;35.90;99.90
25825;DHT22;13658;44.534;18.694;2022-07-22T13:22:45;36.00;99.90
25825;DHT22;13658;44.534;18.694;2022-07-22T13:25:12;35.80;99.90
25825;DHT22;13658;44.534;18.694;2022-07-22T13:27:39;35.70;99.90
25825;DHT22;13658;44.534;18.694;2022-07-22T13:30:05;35.70;99.90
25825;DHT22;13658;44.534;18.694;2022-07-22T13:32:31;35.70;99.90
25825;DHT22;13658;44.534;18.694;2022-07-22T13:34:57;35.70;99.90
25825;DHT22;13658;44.534;18.694;2022-07-22T13:37:24;35.70;99.90
25825;DHT22;13658;44.534;18.694;2022-07-22T13:39:50;35.70;99.90
25825;DHT22;13658;44.534;18.694;2022-07-22T13:42:18;35.70;99.90
25825;DHT22;13658;44.534;18.694;2022-07-22T13:44:45;35.70;99.90
25825;DHT22;13658;44.534;18.694;2022-07-22T13:47:11;35.70;99.90
25825;DHT22;13658;44.534;18.694;2022-07-22T13:49:37;35.70;99.90
25825;DHT22;13658;44.534;18.694;2022-07-22T13:52:04;35.70;99.90
25825;DHT22;13658;44.534;18.694;2022-07-22T13:54:33;35.60;99.90
25825;DHT22;13658;44.534;18.694;2022-07-22T13:57:00;35.50;99.90
25825;DHT22;13658;44.534;18.694;2022-07-22T13:59:27;35.40;99.90
25825;DHT22;13658;44.534;18.694;2022-07-22T14:01:54;35.40;99.90
25825;DHT22;13658;44.534;18.694;2022-07-22T14:04:21;35.30;99.90
25825;DHT22;13658;44.534;18.694;2022-07-22T14:06:47;35.30;99.90
25825;DHT22;13658;44.534;18.694;2022-07-22T14:09:13;35.30;99.90
25825;DHT22;13658;44.534;18.694;2022-07-22T14:11:39;35.40;99.90
25825;DHT22;13658;44.534;18.694;2022-07-22T14:14:05;35.40;99.90
25825;DHT22;13658;44.534;18.694;2022-07-22T14:16:32;35.30;99.90
25825;DHT22;13658;44.534;18.694;2022-07-22T14:19:02;35.30;99.90
25825;DHT22;13658;44.534;18.694;2022-07-22T14:21:28;35.30;99.90
25825;DHT22;13658;44.534;18.694;2022-07-22T14:23:55;35.30;99.90
25825;DHT22;13658;44.534;18.694;2022-07-22T14:26:21;35.30;99.90
25825;DHT22;13658;44.534;18.694;2022-07-22T14:28:47;35.20;99.90
25825;DHT22;13658;44.534;18.694;2022-07-22T14:31:13;35.20;99.90
25825;DHT22;13658;44.534;18.694;2022-07-22T14:33:39;35.20;99.90
25825;DHT22;13658;44.534;18.694;2022-07-22T14:36:06;35.20;99.90
25825;DHT22;13658;44.534;18.694;2022-07-22T14:38:32;35.20;99.90
25825;DHT22;13658;44.534;18.694;2022-07-22T14:40:58;35.30;99.90
25825;DHT22;13658;44.534;18.694;2022-07-22T14:43:24;35.20;99.90
25825;DHT22;13658;44.534;18.694;2022-07-22T14:45:50;35.10;99.90
25825;DHT22;13658;44.534;18.694;2022-07-22T14:48:16;35.10;99.90
25825;DHT22;13658;44.534;18.694;2022-07-22T14:50:42;35.20;99.90
25825;DHT22;13658;44.534;18.694;2022-07-22T14:53:08;35.20;99.90
25825;DHT22;13658;44.534;18.694;2022-07-22T14:55:34;35.10;99.90
25825;DHT22;13658;44.534;18.694;2022-07-22T14:58:00;35.10;99.90
25825;DHT22;13658;44.534;18.694;2022-07-22T15:00:26;35.10;99.90
25825;DHT22;13658;44.534;18.694;2022-07-22T15:02:52;35.20;99.90
25825;DHT22;13658;44.534;18.694;2022-07-22T15:05:18;35.30;99.90
25825;DHT22;13658;44.534;18.694;2022-07-22T15:07:44;35.20;99.90
25825;DHT22;13658;44.534;18.694;2022-07-22T15:10:10;35.20;99.90
25825;DHT22;13658;44.534;18.694;2022-07-22T15:12:36;35.10;99.90
25825;DHT22;13658;44.534;18.694;2022-07-22T15:15:03;35.00;99.90
25825;DHT22;13658;44.534;18.694;2022-07-22T15:17:35;34.90;99.90
25825;DHT22;13658;44.534;18.694;2022-07-22T15:20:02;34.90;99.90
25825;DHT22;13658;44.534;18.694;2022-07-22T15:22:28;34.90;99.90
25825;DHT22;13658;44.534;18.694;2022-07-22T15:24:55;34.80;99.90
25825;DHT22;13658;44.534;18.694;2022-07-22T15:27:21;34.80;99.90
25825;DHT22;13658;44.534;18.694;2022-07-22T15:29:47;34.80;99.90
25825;DHT22;13658;44.534;18.694;2022-07-22T15:32:14;34.90;99.90
25825;DHT22;13658;44.534;18.694;2022-07-22T15:34:40;34.80;99.90
25825;DHT22;13658;44.534;18.694;2022-07-22T15:37:06;34.70;99.90
25825;DHT22;13658;44.534;18.694;2022-07-22T15:39:33;34.70;99.90
25825;DHT22;13658;44.534;18.694;2022-07-22T15:41:59;34.70;99.90
25825;DHT22;13658;44.534;18.694;2022-07-22T15:44:25;34.60;99.90
25825;DHT22;13658;44.534;18.694;2022-07-22T15:46:51;34.60;99.90